Time;durP1;ratioP1;P1;durP2;ratioP2;P2;SDS_P1;SDS_P2;PMS_P1;PMS_P2;Temp;Humidity;BMP_temperature;BMP_pressure;BME280_temperature;BME280_humidity;BME280_pressure;Samples;Min_cycle;Max_cycle;Signal;HPM_P1;HPM_P2
2022/09/05 00:01:29;;;;;;;3.97;2.13;;;18.20;99.90;;;;;;4952863;29;20094;-76
2022/09/05 00:04:36;;;;;;;9.55;2.58;;;18.20;99.90;;;;;;4952723;29;20098;-76
2022/09/05 00:07:11;;;;;;;5.28;2.38;;;18.20;99.90;;;;;;4910474;29;20051;-77
2022/09/05 00:10:05;;;;;;;4.68;1.77;;;18.20;99.90;;;;;;4951820;29;20062;-77
2022/09/05 00:12:34;;;;;;;4.30;2.17;;;18.20;99.90;;;;;;4952860;29;20142;-76
2022/09/05 00:15:35;;;;;;;5.72;2.22;;;18.10;99.90;;;;;;4952790;28;20126;-77
2022/09/05 00:18:59;;;;;;;7.18;2.28;;;18.10;99.90;;;;;;4951153;29;20138;-76
2022/09/05 00:22:15;;;;;;;5.72;2.00;;;18.10;99.90;;;;;;4878312;29;20049;-76
2022/09/05 00:25:19;;;;;;;3.85;2.17;;;18.10;99.90;;;;;;4877920;29;20056;-76
2022/09/05 00:28:08;;;;;;;4.18;2.05;;;18.10;99.90;;;;;;4955691;29;20051;-76
2022/09/05 00:31:10;;;;;;;2.10;1.80;;;18.10;99.90;;;;;;4956221;29;20051;-76
2022/09/05 00:33:57;;;;;;;6.43;2.75;;;18.10;99.90;;;;;;4954775;29;20051;-76
2022/09/05 00:36:46;;;;;;;2.00;1.80;;;18.00;99.90;;;;;;4955013;29;20143;-76
2022/09/05 00:39:39;;;;;;;3.63;2.10;;;18.00;99.90;;;;;;4938694;29;20470;-76
2022/09/05 00:42:17;;;;;;;6.13;2.60;;;18.00;99.90;;;;;;4949574;29;20137;-76
2022/09/05 00:45:02;;;;;;;4.30;2.05;;;18.00;99.90;;;;;;4955918;28;20440;-75
2022/09/05 00:47:43;;;;;;;4.13;1.80;;;18.00;99.90;;;;;;4956073;29;20078;-76
2022/09/05 00:50:25;;;;;;;5.18;2.17;;;18.00;99.90;;;;;;4956054;29;20051;-76
2022/09/05 00:53:11;;;;;;;4.30;2.00;;;18.00;99.90;;;;;;4940637;29;20091;-76
2022/09/05 00:56:02;;;;;;;3.42;2.00;;;18.00;99.90;;;;;;4940053;29;20505;-77
2022/09/05 00:58:45;;;;;;;4.18;2.30;;;18.00;99.90;;;;;;4938613;29;20075;-76
2022/09/05 01:01:35;;;;;;;6.40;1.83;;;17.90;99.90;;;;;;4954581;29;20501;-76
2022/09/05 01:04:08;;;;;;;2.58;1.98;;;17.90;99.90;;;;;;4953848;29;20527;-76
2022/09/05 01:06:59;;;;;;;6.95;2.10;;;17.90;99.90;;;;;;4955430;29;20126;-77
2022/09/05 01:09:42;;;;;;;7.60;2.20;;;17.90;99.90;;;;;;4955296;29;20087;-77
2022/09/05 01:12:33;;;;;;;2.72;1.80;;;17.90;99.90;;;;;;4954460;29;20055;-77
2022/09/05 01:15:35;;;;;;;5.50;2.20;;;18.00;99.90;;;;;;4953866;29;20442;-77
2022/09/05 01:18:13;;;;;;;7.80;2.30;;;17.90;99.90;;;;;;4955608;29;20146;-77
2022/09/05 01:21:04;;;;;;;8.57;2.25;;;17.90;99.90;;;;;;4952971;29;20087;-77
2022/09/05 01:23:46;;;;;;;3.00;2.05;;;17.80;99.90;;;;;;4955101;29;20126;-77
2022/09/05 01:26:28;;;;;;;6.63;2.30;;;17.80;99.90;;;;;;4955067;28;20087;-76
2022/09/05 01:29:26;;;;;;;7.57;1.98;;;17.80;99.90;;;;;;4954972;29;20051;-76
2022/09/05 01:32:08;;;;;;;8.90;2.17;;;17.70;99.90;;;;;;4954084;28;20059;-76
2022/09/05 01:34:48;;;;;;;2.67;2.13;;;17.70;99.90;;;;;;4954601;28;20053;-76
2022/09/05 01:37:38;;;;;;;5.55;2.17;;;17.70;99.90;;;;;;4954963;29;20090;-76
2022/09/05 01:40:22;;;;;;;11.45;2.35;;;17.60;99.90;;;;;;4953514;29;20090;-76
2022/09/05 01:43:22;;;;;;;8.43;1.90;;;17.60;99.90;;;;;;4954709;29;20043;-76
2022/09/05 01:45:54;;;;;;;8.77;2.47;;;17.50;99.90;;;;;;4937532;29;20070;-76
2022/09/05 01:48:46;;;;;;;5.13;2.28;;;17.50;99.90;;;;;;4954288;29;20102;-76
2022/09/05 01:51:35;;;;;;;5.28;3.05;;;17.50;99.90;;;;;;4954237;29;20138;-76
2022/09/05 01:54:31;;;;;;;4.00;2.22;;;17.50;99.90;;;;;;4954589;28;20051;-76
2022/09/05 01:57:31;;;;;;;3.58;2.20;;;17.50;99.90;;;;;;4953034;29;20078;-76
2022/09/05 02:00:16;;;;;;;3.75;2.65;;;17.40;99.90;;;;;;4951911;29;20074;-76
2022/09/05 02:02:51;;;;;;;3.17;2.20;;;17.40;99.90;;;;;;4951917;29;20482;-76
2022/09/05 02:05:37;;;;;;;7.07;3.15;;;17.40;99.90;;;;;;4953837;28;20055;-76
2022/09/05 02:08:14;;;;;;;3.15;2.60;;;17.40;99.90;;;;;;4954412;29;20150;-77
2022/09/05 02:10:53;;;;;;;3.30;2.33;;;17.30;99.90;;;;;;4954336;29;20055;-76
2022/09/05 02:13:30;;;;;;;4.50;2.15;;;17.40;99.90;;;;;;4954616;29;20137;-78
2022/09/05 02:16:30;;;;;;;3.75;2.13;;;17.40;99.90;;;;;;4954205;28;20055;-76
2022/09/05 02:19:08;;;;;;;3.67;2.38;;;17.40;99.90;;;;;;4936650;29;20540;-76
2022/09/05 02:22:09;;;;;;;4.28;2.78;;;17.40;99.90;;;;;;4954086;29;20426;-77
2022/09/05 02:24:52;;;;;;;4.32;2.63;;;17.30;99.90;;;;;;4951839;28;20093;-76
2022/09/05 02:28:13;;;;;;;6.50;2.03;;;17.30;99.90;;;;;;4939068;29;20057;-76
2022/09/05 02:30:55;;;;;;;8.30;2.72;;;17.30;99.90;;;;;;4897214;29;20094;-76
2022/09/05 02:34:02;;;;;;;3.95;2.15;;;17.30;99.90;;;;;;4951274;29;20067;-76
2022/09/05 02:36:41;;;;;;;3.90;2.40;;;17.20;99.90;;;;;;4936586;29;20134;-76
2022/09/05 02:39:28;;;;;;;3.97;2.40;;;17.20;99.90;;;;;;4952619;29;20154;-75
2022/09/05 02:42:24;;;;;;;6.05;2.42;;;17.20;99.90;;;;;;4952902;28;20057;-76
2022/09/05 02:45:44;;;;;;;3.90;2.53;;;17.10;99.90;;;;;;4952013;29;20065;-76
2022/09/05 02:48:21;;;;;;;;;;;17.10;99.90;;;;;;4953959;29;20051;-76
2022/09/05 02:50:51;;;;;;;3.60;2.53;;;17.20;99.90;;;;;;4950409;29;20001;-76
2022/09/05 02:53:43;;;;;;;3.45;2.10;;;17.10;99.90;;;;;;4953655;29;20059;-77
2022/09/05 02:57:02;;;;;;;6.53;2.10;;;17.10;99.90;;;;;;4939022;29;20399;-76
2022/09/05 02:59:57;;;;;;;3.85;2.30;;;17.20;99.90;;;;;;4926495;29;20069;-76
2022/09/05 03:02:48;;;;;;;4.05;2.17;;;17.10;99.90;;;;;;4952269;29;20138;-76
2022/09/05 03:05:27;;;;;;;;;;;17.00;99.90;;;;;;4953726;28;20051;-77
2022/09/05 03:08:24;;;;;;;4.30;2.33;;;17.10;99.90;;;;;;4953852;29;19926;-78
2022/09/05 03:11:19;;;;;;;3.08;2.13;;;17.10;99.90;;;;;;4952240;29;20415;-77
2022/09/05 03:14:17;;;;;;;3.72;2.08;;;17.00;99.90;;;;;;4952318;29;20536;-77
2022/09/05 03:16:47;;;;;;;8.82;2.78;;;17.00;99.90;;;;;;4952065;29;20114;-77
2022/09/05 03:19:46;;;;;;;6.03;2.53;;;17.00;99.90;;;;;;4953133;29;20049;-77
2022/09/05 03:22:47;;;;;;;5.78;2.42;;;17.10;99.90;;;;;;4952366;29;20094;-76
2022/09/05 03:25:42;;;;;;;5.70;2.17;;;17.00;99.90;;;;;;4953183;28;20113;-77
2022/09/05 03:28:50;;;;;;;2.80;2.50;;;17.00;99.90;;;;;;4952329;29;20055;-78
2022/09/05 03:31:51;;;;;;;4.40;2.58;;;16.90;99.90;;;;;;4951391;29;20134;-78
2022/09/05 03:34:26;;;;;;;;;;;16.90;99.90;;;;;;4953848;28;20055;-77
2022/09/05 03:37:31;;;;;;;6.63;2.40;;;16.90;99.90;;;;;;4952889;29;20022;-77
2022/09/05 03:40:12;;;;;;;6.65;2.45;;;16.90;99.90;;;;;;4953318;29;20090;-78
2022/09/05 03:43:15;;;;;;;3.78;2.22;;;16.80;99.90;;;;;;4954802;29;20051;-77
2022/09/05 03:46:08;;;;;;;5.53;3.20;;;16.90;99.90;;;;;;4952612;29;20070;-78
2022/09/05 03:48:56;;;;;;;5.03;2.45;;;16.80;99.90;;;;;;4954890;29;20125;-77
2022/09/05 03:52:14;;;;;;;5.55;2.90;;;16.80;99.90;;;;;;4955007;29;20513;-78
2022/09/05 03:55:04;;;;;;;6.43;3.13;;;16.70;99.90;;;;;;4946314;28;20489;-78
2022/09/05 03:58:11;;;;;;;6.45;2.35;;;16.80;99.90;;;;;;4957011;29;20421;-76
2022/09/05 04:01:02;;;;;;;8.13;3.08;;;16.80;99.90;;;;;;4955532;29;20055;-76
2022/09/05 04:03:57;;;;;;;5.80;2.92;;;16.70;99.90;;;;;;4955307;29;20063;-76
2022/09/05 04:06:59;;;;;;;5.07;2.08;;;16.70;99.90;;;;;;4940835;29;20059;-77
2022/09/05 04:10:01;;;;;;;3.38;2.60;;;16.70;99.90;;;;;;4940906;29;20051;-76
2022/09/05 04:12:45;;;;;;;3.97;2.55;;;16.70;99.90;;;;;;4954298;29;20050;-77
2022/09/05 04:15:20;;;;;;;7.05;2.42;;;16.70;99.90;;;;;;4955677;28;20058;-77
2022/09/05 04:17:55;;;;;;;3.83;2.30;;;16.70;99.90;;;;;;4955299;29;20138;-77
2022/09/05 04:20:29;;;;;;;5.65;2.58;;;16.60;99.90;;;;;;4956368;29;20106;-76
2022/09/05 04:23:24;;;;;;;6.07;2.72;;;16.70;99.90;;;;;;4955730;29;20097;-76
2022/09/05 04:26:12;;;;;;;5.57;2.40;;;16.70;99.90;;;;;;4955206;29;20082;-77
2022/09/05 04:28:49;;;;;;;2.60;2.30;;;16.70;99.90;;;;;;4956041;29;20137;-77
2022/09/05 04:31:43;;;;;;;3.25;2.40;;;16.70;99.90;;;;;;4956432;29;20421;-77
2022/09/05 04:34:44;;;;;;;6.68;2.80;;;16.60;99.90;;;;;;4956025;28;20051;-77
2022/09/05 04:37:36;;;;;;;2.97;2.30;;;16.60;99.90;;;;;;4956132;29;20074;-77
2022/09/05 04:40:29;;;;;;;6.00;2.80;;;16.50;99.90;;;;;;4955706;29;20102;-76
2022/09/05 04:43:13;;;;;;;4.72;2.30;;;16.50;99.90;;;;;;4955263;29;20079;-77
2022/09/05 04:45:53;;;;;;;3.70;2.38;;;16.40;99.90;;;;;;4955731;28;20067;-77
2022/09/05 04:48:42;;;;;;;5.07;2.92;;;16.50;99.90;;;;;;4955650;29;20062;-76
2022/09/05 04:51:33;;;;;;;8.30;2.60;;;16.50;99.90;;;;;;4954525;29;20055;-76
2022/09/05 04:54:28;;;;;;;3.85;2.92;;;16.50;99.90;;;;;;4955958;29;20059;-77
2022/09/05 04:57:15;;;;;;;6.32;2.70;;;16.50;99.90;;;;;;4938556;29;20098;-77
2022/09/05 04:59:42;;;;;;;4.40;2.53;;;16.40;99.90;;;;;;4955598;29;20141;-77
2022/09/05 05:02:36;;;;;;;4.60;2.58;;;16.40;99.90;;;;;;4955513;29;20050;-77
2022/09/05 05:05:31;;;;;;;2.88;2.15;;;16.40;99.90;;;;;;4940532;28;20055;-76
2022/09/05 05:08:41;;;;;;;8.27;2.85;;;16.40;99.90;;;;;;4954814;29;20497;-76
2022/09/05 05:11:17;;;;;;;3.28;2.50;;;16.40;99.90;;;;;;4938312;29;20521;-77
2022/09/05 05:14:18;;;;;;;6.13;2.67;;;16.40;99.90;;;;;;4955104;29;20051;-77
2022/09/05 05:17:21;;;;;;;5.50;2.88;;;16.40;99.90;;;;;;4955276;29;20497;-77
2022/09/05 05:20:49;;;;;;;7.05;3.05;;;16.40;99.90;;;;;;4955041;29;20055;-77
2022/09/05 05:23:20;;;;;;;11.13;3.13;;;16.40;99.90;;;;;;4906765;29;20130;-77
2022/09/05 05:25:53;;;;;;;5.88;2.67;;;16.40;99.90;;;;;;4955271;28;20069;-77
2022/09/05 05:28:45;;;;;;;6.32;3.38;;;16.40;99.90;;;;;;4951933;29;20071;-76
2022/09/05 05:31:16;;;;;;;3.15;2.50;;;16.40;99.90;;;;;;4953674;29;20722;-77
2022/09/05 05:33:49;;;;;;;6.95;3.05;;;16.40;99.90;;;;;;4955203;29;20051;-76
2022/09/05 05:36:24;;;;;;;5.93;3.22;;;16.40;99.90;;;;;;4954837;28;20134;-77
2022/09/05 05:39:07;;;;;;;4.35;2.60;;;16.40;99.90;;;;;;4954917;29;20398;-77
2022/09/05 05:41:49;;;;;;;4.72;2.70;;;16.40;99.90;;;;;;4953529;29;20078;-76
2022/09/05 05:44:36;;;;;;;5.20;3.00;;;16.40;99.90;;;;;;4937331;28;20086;-76
2022/09/05 05:47:42;;;;;;;3.60;3.15;;;16.40;99.90;;;;;;4953444;29;20055;-77
2022/09/05 05:50:32;;;;;;;4.47;2.78;;;16.50;99.90;;;;;;4915122;29;20146;-77
2022/09/05 05:53:30;;;;;;;6.22;3.03;;;16.50;99.90;;;;;;4954137;29;20142;-77
2022/09/05 05:56:30;;;;;;;4.60;3.00;;;16.50;99.90;;;;;;4939577;29;20051;-76
2022/09/05 05:59:10;;;;;;;9.52;3.20;;;16.50;99.90;;;;;;4954134;29;20075;-77
2022/09/05 06:02:20;;;;;;;4.30;2.42;;;16.50;99.90;;;;;;4954696;29;20479;-76
2022/09/05 06:04:59;;;;;;;3.30;3.00;;;16.50;99.90;;;;;;4954474;28;20452;-76
2022/09/05 06:08:06;;;;;;;4.95;2.80;;;16.60;99.90;;;;;;4954764;29;20047;-77
2022/09/05 06:11:13;;;;;;;6.55;2.70;;;16.60;99.90;;;;;;4950700;29;20425;-76
2022/09/05 06:14:52;;;;;;;6.65;2.75;;;16.70;99.90;;;;;;4953266;29;20051;-75
2022/09/05 06:18:04;;;;;;;3.65;2.58;;;16.80;99.90;;;;;;4938818;28;20055;-76
2022/09/05 06:20:36;;;;;;;7.45;3.03;;;16.80;99.90;;;;;;4954007;29;20051;-76
2022/09/05 06:23:54;;;;;;;5.40;3.03;;;16.90;99.90;;;;;;4953528;29;20424;-76
2022/09/05 06:26:48;;;;;;;5.75;2.30;;;16.90;99.90;;;;;;4954367;28;20130;-76
2022/09/05 06:29:23;;;;;;;7.65;2.33;;;16.90;99.90;;;;;;4954391;29;20134;-76
2022/09/05 06:32:06;;;;;;;4.78;2.60;;;17.00;99.90;;;;;;4954053;29;20055;-77
2022/09/05 06:35:10;;;;;;;4.68;2.67;;;17.00;99.90;;;;;;4952957;29;20062;-74
2022/09/05 06:38:00;;;;;;;3.28;2.70;;;17.00;99.90;;;;;;4952926;29;20534;-76
2022/09/05 06:40:40;;;;;;;5.00;2.80;;;17.10;99.90;;;;;;4952822;29;20506;-76
2022/09/05 06:43:26;;;;;;;5.95;2.90;;;17.10;99.90;;;;;;4954357;29;20382;-75
2022/09/05 06:46:04;;;;;;;6.22;2.80;;;17.20;99.90;;;;;;4954159;28;20101;-75
2022/09/05 06:48:55;;;;;;;3.03;2.47;;;17.20;99.90;;;;;;4954388;29;20058;-77
2022/09/05 06:52:06;;;;;;;3.63;2.40;;;17.30;99.90;;;;;;4954086;29;20055;-76
2022/09/05 06:55:14;;;;;;;;;;;17.40;99.90;;;;;;4954271;28;20044;-75
2022/09/05 06:57:53;;;;;;;5.43;2.88;;;17.40;99.90;;;;;;4953021;29;19962;-76
2022/09/05 07:00:50;;;;;;;5.50;2.30;;;17.50;99.90;;;;;;4954007;29;20094;-75
2022/09/05 07:03:36;;;;;;;2.83;2.20;;;17.60;99.90;;;;;;4937473;29;20047;-77
2022/09/05 07:06:23;;;;;;;6.32;2.95;;;17.60;99.90;;;;;;4953641;28;20089;-77
2022/09/05 07:09:09;;;;;;;6.35;3.00;;;17.70;99.90;;;;;;4953560;29;20055;-77
2022/09/05 07:11:49;;;;;;;5.18;2.95;;;17.80;99.90;;;;;;4953803;29;20076;-78
2022/09/05 07:14:26;;;;;;;4.43;2.53;;;17.90;99.90;;;;;;4952973;28;20565;-77
2022/09/05 07:17:04;;;;;;;5.53;3.05;;;18.00;99.90;;;;;;4952566;29;20130;-77
2022/09/05 07:19:38;;;;;;;4.65;2.85;;;18.00;99.90;;;;;;4952662;29;20509;-77
2022/09/05 07:22:19;;;;;;;7.43;2.58;;;18.10;99.90;;;;;;4953829;29;20046;-75
2022/09/05 07:25:09;;;;;;;5.85;2.90;;;18.20;99.90;;;;;;4950968;29;20712;-77
2022/09/05 07:28:02;;;;;;;6.88;2.65;;;18.30;99.90;;;;;;4953792;29;20462;-77
2022/09/05 07:31:07;;;;;;;4.53;2.67;;;18.40;99.90;;;;;;4956808;28;20070;-76
2022/09/05 07:33:38;;;;;;;4.22;2.90;;;18.50;99.90;;;;;;4958053;29;20138;-77
2022/09/05 07:36:07;;;;;;;;;;;18.60;99.90;;;;;;4958385;28;20137;-77
2022/09/05 07:38:37;;;;;;;8.00;2.53;;;18.60;99.90;;;;;;4956595;29;19973;-77
2022/09/05 07:41:28;;;;;;;4.95;2.42;;;18.70;99.90;;;;;;4957664;29;20131;-77
2022/09/05 07:44:18;;;;;;;5.18;2.50;;;18.80;99.90;;;;;;4958050;29;20050;-78
2022/09/05 07:47:10;;;;;;;5.95;2.47;;;18.80;99.90;;;;;;4957547;29;20126;-77
2022/09/05 07:49:38;;;;;;;8.05;3.15;;;18.90;99.90;;;;;;4957140;29;20086;-77
2022/09/05 07:52:26;;;;;;;4.55;2.65;;;19.00;99.90;;;;;;4957775;29;20054;-77
2022/09/05 07:55:24;;;;;;;6.03;2.90;;;19.10;99.90;;;;;;4957071;28;20055;-77
2022/09/05 07:58:14;;;;;;;6.40;3.40;;;19.20;99.90;;;;;;4955599;29;20053;-77
2022/09/05 08:00:42;;;;;;;6.70;2.97;;;19.20;99.90;;;;;;4957468;29;20101;-77
2022/09/05 08:03:12;;;;;;;7.05;3.20;;;19.30;99.90;;;;;;4958461;29;20483;-77
2022/09/05 08:05:49;;;;;;;6.95;2.75;;;19.40;99.90;;;;;;4939117;29;20134;-77
2022/09/05 08:08:27;;;;;;;4.15;2.60;;;19.60;99.90;;;;;;4940566;29;20047;-79
2022/09/05 08:11:11;;;;;;;3.72;2.40;;;19.70;99.90;;;;;;4939288;29;20051;-78
2022/09/05 08:14:07;;;;;;;3.42;2.05;;;19.90;99.90;;;;;;4957015;29;20499;-77
2022/09/05 08:16:54;;;;;;;6.80;2.45;;;20.10;99.90;;;;;;4956790;28;20043;-78
2022/09/05 08:19:54;;;;;;;3.45;1.95;;;20.30;99.90;;;;;;4956817;29;20583;-77
2022/09/05 08:22:55;;;;;;;5.20;2.20;;;20.50;99.90;;;;;;4956933;29;20481;-77
2022/09/05 08:25:32;;;;;;;3.92;2.25;;;20.70;99.90;;;;;;4956845;28;20047;-77
2022/09/05 08:28:55;;;;;;;2.35;2.05;;;20.90;99.90;;;;;;4955475;29;20054;-78
2022/09/05 08:31:39;;;;;;;3.35;2.45;;;21.00;99.90;;;;;;4954969;29;20079;-78
2022/09/05 08:34:26;;;;;;;5.78;2.47;;;21.20;99.90;;;;;;4956562;28;20069;-77
2022/09/05 08:37:14;;;;;;;2.80;2.20;;;21.20;99.90;;;;;;4956798;29;20410;-78
2022/09/05 08:39:51;;;;;;;3.30;2.00;;;21.20;99.90;;;;;;4955587;29;20051;-77
2022/09/05 08:42:58;;;;;;;3.40;1.88;;;21.30;99.90;;;;;;4956434;29;20438;-78
2022/09/05 08:46:11;;;;;;;4.63;1.88;;;21.20;99.90;;;;;;4955959;28;20047;-77
2022/09/05 08:48:58;;;;;;;3.33;2.20;;;21.30;99.90;;;;;;4955755;29;20074;-78
2022/09/05 08:51:42;;;;;;;3.63;1.77;;;21.30;99.90;;;;;;4954630;29;20047;-78
2022/09/05 08:54:34;;;;;;;2.00;1.70;;;21.30;99.90;;;;;;4956180;28;20102;-77
2022/09/05 08:57:38;;;;;;;2.03;1.60;;;21.50;99.90;;;;;;4952910;29;20168;-76
2022/09/05 09:00:07;;;;;;;3.33;1.48;;;21.70;99.90;;;;;;4955235;29;20047;-77
2022/09/05 09:03:02;;;;;;;2.25;1.70;;;21.80;99.90;;;;;;4956213;29;20047;-77
2022/09/05 09:05:54;;;;;;;2.33;1.60;;;21.90;99.90;;;;;;4938385;29;20102;-77
2022/09/05 09:09:08;;;;;;;2.75;1.60;;;21.90;99.90;;;;;;4955851;29;20117;-76
2022/09/05 09:11:40;;;;;;;2.53;1.73;;;21.90;99.90;;;;;;4954534;29;20083;-78
2022/09/05 09:14:37;;;;;;;3.35;1.45;;;21.90;99.90;;;;;;4956072;29;20077;-78
2022/09/05 09:17:13;;;;;;;3.13;1.63;;;21.80;99.90;;;;;;4955684;29;20102;-79
2022/09/05 09:19:53;;;;;;;3.72;2.10;;;21.80;99.90;;;;;;4955579;29;20082;-77
2022/09/05 09:22:29;;;;;;;3.47;1.50;;;21.80;99.90;;;;;;4938213;29;20051;-77
2022/09/05 09:25:26;;;;;;;1.98;1.48;;;21.80;99.90;;;;;;4955296;28;20134;-78
2022/09/05 09:28:46;;;;;;;2.65;1.83;;;21.80;99.90;;;;;;4954303;29;20421;-76
2022/09/05 09:31:38;;;;;;;2.95;1.80;;;21.90;99.90;;;;;;4922732;29;20166;-78
2022/09/05 09:34:28;;;;;;;3.05;1.60;;;22.00;99.90;;;;;;4955645;29;20107;-79
2022/09/05 09:37:16;;;;;;;3.37;1.47;;;22.10;99.90;;;;;;4954481;29;20514;-77
2022/09/05 09:40:24;;;;;;;2.88;1.85;;;22.10;99.90;;;;;;4955571;29;20279;-77
2022/09/05 09:43:00;;;;;;;2.00;1.60;;;22.10;99.90;;;;;;4954469;29;20130;-77
2022/09/05 09:45:54;;;;;;;3.63;2.15;;;22.10;99.90;;;;;;4955112;28;20055;-78
2022/09/05 09:48:42;;;;;;;3.58;1.60;;;22.10;99.90;;;;;;4938192;29;20097;-78
2022/09/05 09:51:36;;;;;;;3.55;1.80;;;22.20;99.90;;;;;;4954108;29;20546;-77
2022/09/05 09:54:42;;;;;;;6.93;1.77;;;22.30;99.90;;;;;;4954929;28;20130;-77
2022/09/05 09:57:36;;;;;;;3.03;1.48;;;22.50;99.90;;;;;;4953909;29;20087;-77
2022/09/05 10:00:19;;;;;;;4.43;2.00;;;22.70;99.90;;;;;;4953675;29;20083;-78
2022/09/05 10:03:16;;;;;;;4.93;1.70;;;22.90;99.90;;;;;;4954931;29;20582;-78
2022/09/05 10:06:05;;;;;;;7.45;2.00;;;23.10;99.90;;;;;;4954734;28;20055;-79
2022/09/05 10:09:02;;;;;;;2.38;1.63;;;23.30;99.90;;;;;;4954749;29;20445;-77
2022/09/05 10:12:28;;;;;;;2.22;1.60;;;23.50;99.90;;;;;;4954805;28;20501;-77
2022/09/05 10:15:13;;;;;;;2.42;1.65;;;23.70;99.90;;;;;;4954026;28;20057;-75
2022/09/05 10:18:20;;;;;;;4.60;1.90;;;23.90;99.90;;;;;;4954249;29;20418;-79
2022/09/05 10:21:08;;;;;;;5.97;2.13;;;24.00;99.90;;;;;;4954152;29;20055;-78
2022/09/05 10:23:59;;;;;;;2.05;1.50;;;24.10;99.90;;;;;;4953829;29;20075;-77
2022/09/05 10:27:04;;;;;;;3.47;1.60;;;24.20;99.90;;;;;;4953300;29;20134;-77
2022/09/05 10:29:42;;;;;;;4.30;1.98;;;24.20;99.90;;;;;;4954317;29;20089;-74
2022/09/05 10:32:15;;;;;;;3.25;1.70;;;24.20;99.90;;;;;;4954623;29;20490;-77
2022/09/05 10:35:23;;;;;;;3.28;1.70;;;24.10;99.90;;;;;;4954129;28;20058;-78
2022/09/05 10:38:03;;;;;;;4.57;2.03;;;24.10;99.90;;;;;;4954762;29;20105;-78
2022/09/05 10:40:39;;;;;;;4.93;1.80;;;24.10;99.90;;;;;;4952841;29;20102;-78
2022/09/05 10:43:29;;;;;;;3.85;1.80;;;24.10;99.90;;;;;;4954273;29;20054;-77
2022/09/05 10:45:56;;;;;;;3.88;2.10;;;24.20;99.90;;;;;;4954121;28;20079;-77
2022/09/05 10:48:45;;;;;;;3.33;1.90;;;24.30;99.90;;;;;;4953960;29;20051;-78
2022/09/05 10:51:21;;;;;;;4.68;1.80;;;24.30;99.90;;;;;;4952648;29;20448;-77
2022/09/05 10:54:10;;;;;;;3.72;1.77;;;24.40;99.90;;;;;;4954288;29;20058;-77
2022/09/05 10:56:43;;;;;;;4.97;1.73;;;24.50;99.90;;;;;;4954247;29;20494;-75
2022/09/05 10:59:28;;;;;;;3.90;1.67;;;24.50;99.90;;;;;;4953777;29;20061;-75
2022/09/05 11:02:21;;;;;;;4.60;1.92;;;24.60;99.90;;;;;;4952738;29;20057;-78
2022/09/05 11:05:24;;;;;;;3.35;1.60;;;24.60;99.90;;;;;;4952661;28;20491;-77
2022/09/05 11:08:21;;;;;;;5.63;1.95;;;24.70;99.90;;;;;;4952670;29;20050;-76
2022/09/05 11:10:53;;;;;;;3.85;1.83;;;24.80;99.90;;;;;;4952982;29;20090;-77
2022/09/05 11:13:49;;;;;;;2.65;1.65;;;24.90;99.90;;;;;;4954250;29;20138;-77
2022/09/05 11:16:44;;;;;;;4.50;1.60;;;25.00;99.90;;;;;;4954097;28;20047;-78
2022/09/05 11:19:17;;;;;;;2.97;1.60;;;25.00;99.90;;;;;;4951610;29;20134;-77
2022/09/05 11:21:50;;;;;;;2.90;1.33;;;25.10;99.90;;;;;;4936871;29;20074;-76
2022/09/05 11:24:39;;;;;;;2.15;1.45;;;25.10;99.90;;;;;;4953281;28;20553;-77
2022/09/05 11:27:23;;;;;;;2.67;1.40;;;25.10;99.90;;;;;;4952930;29;20052;-77
2022/09/05 11:30:03;;;;;;;2.20;1.60;;;25.10;99.90;;;;;;4951753;29;20156;-77
2022/09/05 11:33:11;;;;;;;3.30;1.70;;;25.10;99.90;;;;;;4953284;29;20137;-77
2022/09/05 11:36:41;;;;;;;3.83;1.13;;;25.10;99.90;;;;;;4951079;28;20059;-76
2022/09/05 11:40:15;;;;;;;1.80;1.30;;;25.00;99.90;;;;;;4950411;29;20058;-76
2022/09/05 11:43:35;;;;;;;6.38;1.88;;;24.90;99.90;;;;;;4951318;29;20051;-77
2022/09/05 11:46:18;;;;;;;5.22;1.70;;;24.80;99.90;;;;;;4946539;29;20134;-78
2022/09/05 11:49:50;;;;;;;4.97;1.70;;;24.80;99.90;;;;;;4951185;29;20062;-77
2022/09/05 11:52:39;;;;;;;5.47;1.52;;;24.70;99.90;;;;;;4872999;29;20132;-77
2022/09/05 11:55:36;;;;;;;4.90;1.77;;;24.70;99.90;;;;;;4873858;29;20051;-76
2022/09/05 11:58:14;;;;;;;2.88;1.88;;;24.60;99.90;;;;;;4937886;29;20532;-76
2022/09/05 12:01:22;;;;;;;6.70;1.88;;;24.60;99.90;;;;;;4951888;29;20424;-75
2022/09/05 12:04:37;;;;;;;3.92;1.85;;;24.50;99.90;;;;;;4951428;28;20055;-75
2022/09/05 12:07:27;;;;;;;3.22;1.58;;;24.50;99.90;;;;;;4951524;29;20051;-78
2022/09/05 12:10:22;;;;;;;3.85;1.70;;;24.50;99.90;;;;;;4950268;29;20134;-76
2022/09/05 12:13:32;;;;;;;2.60;1.52;;;24.60;99.90;;;;;;4955901;29;20058;-76
2022/09/05 12:16:00;;;;;;;;;;;24.60;99.90;;;;;;4951025;28;20054;-75
2022/09/05 12:19:19;;;;;;;3.15;1.55;;;24.60;99.90;;;;;;4957100;28;19922;-77
2022/09/05 12:22:23;;;;;;;3.53;1.40;;;24.50;99.90;;;;;;4932233;29;20127;-76
2022/09/05 12:25:23;;;;;;;2.05;1.20;;;24.60;99.90;;;;;;4928913;29;20411;-77
2022/09/05 12:28:16;;;;;;;3.65;1.40;;;24.50;99.90;;;;;;4953069;29;20057;-77
2022/09/05 12:31:26;;;;;;;7.70;1.60;;;24.50;99.90;;;;;;4955261;29;20065;-77
2022/09/05 12:34:25;;;;;;;1.70;1.37;;;24.70;99.90;;;;;;4936515;28;20069;-76
2022/09/05 12:37:12;;;;;;;2.10;1.02;;;24.70;99.90;;;;;;4938745;29;20051;-76
2022/09/05 12:40:08;;;;;;;3.88;1.30;;;24.70;99.90;;;;;;4950680;29;20058;-77
2022/09/05 12:42:59;;;;;;;1.55;0.90;;;24.80;99.90;;;;;;4954945;29;20050;-75
2022/09/05 12:46:12;;;;;;;1.15;0.80;;;24.80;99.90;;;;;;4939099;29;20055;-75
2022/09/05 12:49:06;;;;;;;1.73;0.73;;;24.80;99.90;;;;;;4953510;29;20062;-75
2022/09/05 12:51:40;;;;;;;3.65;1.02;;;24.90;99.90;;;;;;4955789;29;20150;-76
2022/09/05 12:54:26;;;;;;;1.90;1.08;;;25.00;99.90;;;;;;4955634;28;20579;-76
2022/09/05 12:57:25;;;;;;;2.58;0.80;;;25.00;99.90;;;;;;4953168;29;20066;-75
2022/09/05 13:00:20;;;;;;;1.42;0.82;;;25.20;99.90;;;;;;4955350;29;20059;-76
2022/09/05 13:03:14;;;;;;;2.88;1.27;;;25.40;99.90;;;;;;4954622;29;20058;-75
2022/09/05 13:06:07;;;;;;;1.70;1.10;;;25.30;99.90;;;;;;4955346;28;20470;-76
2022/09/05 13:08:46;;;;;;;1.75;1.30;;;25.30;99.90;;;;;;4955346;29;20082;-77
2022/09/05 13:11:27;;;;;;;2.88;0.68;;;25.30;99.90;;;;;;4955242;29;20114;-76
2022/09/05 13:14:24;;;;;;;1.60;1.10;;;25.30;99.90;;;;;;4955379;28;20058;-76
2022/09/05 13:17:15;;;;;;;2.58;1.13;;;25.30;99.90;;;;;;4955091;29;20047;-76
2022/09/05 13:19:50;;;;;;;2.67;1.00;;;25.30;99.90;;;;;;4953001;29;20059;-76
2022/09/05 13:22:20;;;;;;;2.60;1.10;;;25.30;99.90;;;;;;4955076;29;20532;-77
2022/09/05 13:24:57;;;;;;;1.00;0.95;;;25.30;99.90;;;;;;4953206;28;20054;-77
2022/09/05 13:27:30;;;;;;;1.65;1.30;;;25.30;99.90;;;;;;4949857;28;20055;-76
2022/09/05 13:30:06;;;;;;;2.88;0.90;;;25.40;99.90;;;;;;4950269;29;20051;-76
2022/09/05 13:33:22;;;;;;;4.13;1.20;;;25.40;99.90;;;;;;4939611;29;20549;-77
2022/09/05 13:36:13;;;;;;;2.55;1.10;;;25.50;99.90;;;;;;4948453;29;20498;-76
2022/09/05 13:39:03;;;;;;;6.18;1.20;;;25.50;99.90;;;;;;4946523;29;20051;-77
2022/09/05 13:41:41;;;;;;;3.67;1.08;;;25.50;99.90;;;;;;4948897;29;20079;-77
2022/09/05 13:44:13;;;;;;;2.35;1.10;;;25.50;99.90;;;;;;4954343;28;20051;-76
2022/09/05 13:46:52;;;;;;;2.95;1.08;;;25.50;99.90;;;;;;4948984;29;20059;-76
2022/09/05 13:49:35;;;;;;;3.72;1.42;;;25.60;99.90;;;;;;4953854;28;20047;-77
2022/09/05 13:52:26;;;;;;;4.32;1.20;;;25.60;99.90;;;;;;4951653;28;20082;-77
2022/09/05 13:55:12;;;;;;;3.85;1.27;;;25.60;99.90;;;;;;4948765;28;20051;-77
2022/09/05 13:57:42;;;;;;;2.08;1.20;;;25.70;99.90;;;;;;4935408;29;20051;-77
2022/09/05 14:00:09;;;;;;;3.25;1.30;;;25.70;99.90;;;;;;4951783;29;20126;-77
2022/09/05 14:03:12;;;;;;;5.82;1.17;;;25.60;99.90;;;;;;4952692;28;20461;-77
2022/09/05 14:06:19;;;;;;;2.80;1.20;;;25.60;99.90;;;;;;4950610;28;20051;-77
2022/09/05 14:09:28;;;;;;;7.70;1.10;;;25.60;99.90;;;;;;4950799;29;20527;-77
2022/09/05 14:12:17;;;;;;;3.95;1.10;;;25.60;99.90;;;;;;4953375;29;20113;-77
2022/09/05 14:14:51;;;;;;;1.73;1.13;;;25.70;99.90;;;;;;4950629;29;20082;-76
2022/09/05 14:18:02;;;;;;;4.68;1.30;;;25.70;99.90;;;;;;4949959;28;20047;-77
2022/09/05 14:21:15;;;;;;;2.80;1.38;;;25.70;99.90;;;;;;4948729;29;20048;-78
2022/09/05 14:23:54;;;;;;;2.30;1.30;;;25.70;99.90;;;;;;4950515;29;20134;-77
2022/09/05 14:27:09;;;;;;;3.55;1.20;;;25.70;99.90;;;;;;4951795;28;20102;-77
2022/09/05 14:29:51;;;;;;;2.90;1.55;;;25.70;99.90;;;;;;4944208;28;20526;-77
2022/09/05 14:32:18;;;;;;;1.63;1.02;;;25.70;99.90;;;;;;4953932;28;20436;-77
2022/09/05 14:35:13;;;;;;;4.05;1.23;;;25.70;99.90;;;;;;4954535;28;20525;-77
2022/09/05 14:38:15;;;;;;;2.40;1.65;;;25.70;99.90;;;;;;4952089;29;20051;-77
2022/09/05 14:41:28;;;;;;;1.40;1.02;;;25.70;99.90;;;;;;4952071;29;20074;-78
2022/09/05 14:44:31;;;;;;;3.90;1.30;;;25.70;99.90;;;;;;4935690;29;20078;-77
2022/09/05 14:47:36;;;;;;;2.13;1.42;;;25.70;99.90;;;;;;4954915;29;20497;-77
2022/09/05 14:50:38;;;;;;;4.57;1.30;;;25.70;99.90;;;;;;4953713;29;20049;-77